Schedule Details


Flight Number: CTN4408
Departure: Zemunik (LDZD) at 12:40
Arrival: Frankfurt/main (EDDF) at 14:20
Route: ALANU L868 GISER UL862 SABAD DCT PIKIT DCT SUBEN UQ162 PSA

Weather Information
LDZD 242100Z VRB01KT CAVOK 23/17 Q1019 BECMG 04008KT
EDDF 242120Z 08004KT CAVOK 24/16 Q1019 NOSIG
Schedule Frequency

Route Map